createdAt,value
2023-02-16T00:00:27.876Z,54.03
2023-02-16T00:00:59.727Z,54.40
2023-02-16T00:01:35.194Z,54.87
2023-02-16T00:02:10.334Z,54.80
2023-02-16T00:02:42.213Z,56.63
2023-02-16T00:03:17.547Z,53.60
2023-02-16T00:03:49.792Z,51.23
2023-02-16T00:04:24.988Z,54.17
2023-02-16T00:04:56.805Z,52.60
2023-02-16T00:05:31.807Z,51.90
2023-02-16T00:06:04.070Z,53.57
2023-02-16T00:06:36.036Z,54.07
2023-02-16T00:07:07.865Z,53.30
2023-02-16T00:07:39.598Z,55.83
2023-02-16T00:08:11.657Z,57.73
2023-02-16T00:08:48.467Z,56.03
2023-02-16T00:09:21.441Z,55.27
2023-02-16T00:09:53.216Z,54.03
2023-02-16T00:10:26.813Z,53.70
2023-02-16T00:11:33.852Z,56.30
2023-02-16T00:12:37.082Z,56.23
2023-02-16T00:13:45.535Z,55.40
2023-02-16T00:14:18.879Z,51.97
2023-02-16T00:14:50.713Z,52.60
2023-02-16T00:15:22.599Z,53.30
2023-02-16T00:15:54.394Z,51.77
2023-02-16T00:16:26.358Z,52.93
2023-02-16T00:16:59.745Z,52.97
2023-02-16T00:17:31.487Z,54.10
2023-02-16T00:18:17.862Z,52.93
2023-02-16T00:18:50.161Z,50.67
2023-02-16T00:19:48.376Z,51.30
2023-02-16T00:20:20.268Z,51.77
2023-02-16T00:20:52.009Z,51.23
2023-02-16T00:21:24.193Z,50.57
2023-02-16T00:21:58.854Z,51.90
2023-02-16T00:22:30.619Z,52.00
2023-02-16T00:23:02.388Z,52.60
2023-02-16T00:23:34.227Z,51.93
2023-02-16T00:24:06.274Z,51.57
2023-02-16T00:24:38.163Z,53.73
2023-02-16T00:25:11.249Z,55.53
2023-02-16T00:25:43.301Z,56.30
2023-02-16T00:26:21.669Z,56.53
2023-02-16T00:26:54.329Z,57.60
2023-02-16T00:27:26.158Z,55.53
2023-02-16T00:27:58.021Z,55.13
2023-02-16T00:28:29.853Z,57.00
2023-02-16T00:29:01.925Z,58.00
2023-02-16T00:29:37.356Z,55.20
2023-02-16T00:30:21.941Z,55.33
2023-02-16T00:30:53.791Z,56.50
2023-02-16T00:31:27.923Z,57.10
2023-02-16T00:32:02.767Z,55.80
2023-02-16T00:32:34.643Z,55.00
2023-02-16T00:33:20.943Z,53.47
2023-02-16T00:33:53.446Z,53.73
2023-02-16T00:34:37.677Z,53.70
2023-02-16T00:35:17.405Z,55.30
2023-02-16T00:35:49.418Z,55.67
2023-02-16T00:36:21.724Z,57.03
2023-02-16T00:36:54.492Z,57.00
2023-02-16T00:37:26.201Z,56.00
2023-02-16T00:37:58.008Z,56.63
2023-02-16T00:38:29.828Z,57.50
2023-02-16T00:39:01.572Z,57.73
2023-02-16T00:39:33.978Z,59.00
2023-02-16T00:40:06.339Z,58.20
2023-02-16T00:40:38.331Z,56.30
2023-02-16T00:41:36.927Z,57.07
2023-02-16T00:42:24.319Z,60.67
2023-02-16T00:42:57.577Z,59.63
2023-02-16T00:43:30.960Z,57.47
2023-02-16T00:44:03.050Z,58.53
2023-02-16T00:44:34.732Z,59.10
2023-02-16T00:45:16.981Z,58.90
2023-02-16T00:45:48.865Z,61.93
2023-02-16T00:46:21.301Z,63.00
2023-02-16T00:46:53.408Z,62.63
2023-02-16T00:47:37.495Z,62.70
2023-02-16T00:48:09.629Z,65.73
2023-02-16T00:48:41.337Z,64.90
2023-02-16T00:49:17.655Z,67.20
2023-02-16T00:49:52.267Z,71.60
2023-02-16T00:50:31.469Z,75.93
2023-02-16T00:51:11.064Z,72.10
2023-02-16T00:51:49.862Z,66.00
2023-02-16T00:52:31.480Z,67.03
2023-02-16T00:53:03.266Z,65.43
2023-02-16T00:53:35.033Z,62.03
2023-02-16T00:54:06.808Z,63.43
2023-02-16T00:54:38.555Z,62.13
2023-02-16T00:55:13.383Z,59.60
2023-02-16T00:55:45.201Z,58.57
2023-02-16T00:56:20.892Z,60.80
2023-02-16T00:56:52.841Z,59.70
2023-02-16T00:57:27.582Z,56.40
2023-02-16T00:58:25.719Z,57.40
2023-02-16T00:58:58.148Z,56.07
2023-02-16T00:59:30.007Z,57.10
2023-02-16T01:00:14.205Z,57.13
2023-02-16T01:00:53.707Z,55.83
2023-02-16T01:01:29.158Z,54.17
2023-02-16T01:02:00.923Z,54.07
2023-02-16T01:02:33.057Z,54.30
2023-02-16T01:03:14.551Z,55.30
2023-02-16T01:03:46.259Z,56.33
2023-02-16T01:04:22.591Z,53.47
2023-02-16T01:04:54.721Z,55.80
2023-02-16T01:05:27.114Z,58.43
2023-02-16T01:06:17.793Z,59.77
2023-02-16T01:07:08.341Z,57.67
2023-02-16T01:07:58.535Z,57.80
2023-02-16T01:08:48.791Z,56.00
2023-02-16T01:09:39.530Z,56.77
2023-02-16T01:10:30.086Z,57.03
2023-02-16T01:11:04.441Z,57.73
2023-02-16T01:11:36.456Z,57.97
2023-02-16T01:12:17.108Z,57.90
2023-02-16T01:12:49.052Z,59.00
2023-02-16T01:13:22.461Z,58.90
2023-02-16T01:13:56.277Z,56.27
2023-02-16T01:14:29.739Z,56.70
2023-02-16T01:15:01.627Z,56.07
2023-02-16T01:15:33.431Z,55.13
2023-02-16T01:16:10.328Z,56.43
2023-02-16T01:16:43.424Z,56.90
2023-02-16T01:17:15.264Z,56.50
2023-02-16T01:17:47.012Z,57.73
2023-02-16T01:18:20.167Z,56.23
2023-02-16T01:18:53.104Z,56.70
2023-02-16T01:19:25.032Z,55.27
2023-02-16T01:19:56.796Z,58.60
2023-02-16T01:20:28.899Z,58.20
2023-02-16T01:21:00.848Z,57.77
2023-02-16T01:21:33.280Z,56.80
2023-02-16T01:22:05.822Z,56.40
2023-02-16T01:22:37.649Z,57.10
2023-02-16T01:23:09.596Z,59.83
2023-02-16T01:23:41.458Z,60.90
2023-02-16T01:24:13.256Z,57.23
2023-02-16T01:24:45.125Z,56.47
2023-02-16T01:25:17.032Z,57.73
2023-02-16T01:25:48.812Z,57.03
2023-02-16T01:26:21.824Z,57.17
2023-02-16T01:26:53.793Z,59.87
2023-02-16T01:27:25.644Z,59.20
2023-02-16T01:27:57.582Z,60.03
2023-02-16T01:28:29.547Z,58.23
2023-02-16T01:29:01.279Z,58.77
2023-02-16T01:29:33.072Z,58.43
2023-02-16T01:30:16.512Z,57.07
2023-02-16T01:30:49.761Z,55.33
2023-02-16T01:31:21.715Z,57.20
2023-02-16T01:31:53.959Z,57.47
2023-02-16T01:32:25.883Z,55.63
2023-02-16T01:32:57.763Z,55.60
2023-02-16T01:33:29.568Z,55.23
2023-02-16T01:34:01.495Z,55.27
2023-02-16T01:34:33.288Z,58.20
2023-02-16T01:35:05.526Z,60.63
2023-02-16T01:35:37.567Z,61.27
2023-02-16T01:36:33.654Z,57.30
2023-02-16T01:37:05.401Z,57.50
2023-02-16T01:37:37.230Z,57.40
2023-02-16T01:38:19.535Z,58.00
2023-02-16T01:38:51.746Z,57.83
2023-02-16T01:39:24.047Z,58.30
2023-02-16T01:39:55.843Z,57.07
2023-02-16T01:40:33.577Z,56.80
2023-02-16T01:41:29.447Z,59.30
2023-02-16T01:42:07.197Z,59.53
2023-02-16T01:42:53.254Z,58.73
2023-02-16T01:43:38.506Z,59.97
2023-02-16T01:44:23.785Z,59.60
2023-02-16T01:45:34.149Z,59.80
2023-02-16T01:46:16.835Z,59.83
2023-02-16T01:47:07.347Z,59.53
2023-02-16T01:47:47.563Z,58.50
2023-02-16T01:48:31.150Z,56.77
2023-02-16T01:49:03.034Z,57.53
2023-02-16T01:49:34.837Z,55.67
2023-02-16T01:50:48.767Z,53.83
2023-02-16T01:51:38.128Z,51.60
2023-02-16T01:52:37.471Z,53.33
2023-02-16T01:53:39.068Z,52.07
2023-02-16T01:54:33.014Z,54.90
2023-02-16T01:55:10.130Z,54.80
2023-02-16T01:55:48.366Z,56.33
2023-02-16T01:56:28.689Z,55.67
2023-02-16T01:57:06.317Z,53.33
2023-02-16T01:57:45.341Z,54.07
2023-02-16T01:58:45.927Z,53.43
2023-02-16T01:59:49.840Z,53.23
2023-02-16T02:00:49.244Z,54.90
2023-02-16T02:01:39.765Z,52.53
2023-02-16T02:02:22.651Z,55.07
2023-02-16T02:03:20.592Z,54.93
2023-02-16T02:04:11.243Z,53.37
2023-02-16T02:05:15.914Z,52.83
2023-02-16T02:05:49.235Z,53.80
2023-02-16T02:06:34.563Z,52.87
2023-02-16T02:07:07.056Z,53.23
2023-02-16T02:07:55.460Z,54.57
2023-02-16T02:08:34.107Z,54.50
2023-02-16T02:09:05.774Z,55.30
2023-02-16T02:09:48.105Z,53.50
2023-02-16T02:10:30.822Z,53.30
2023-02-16T02:11:23.738Z,54.83
2023-02-16T02:12:25.774Z,52.80
2023-02-16T02:13:39.880Z,53.37
2023-02-16T02:14:24.329Z,57.63
2023-02-16T02:14:56.473Z,53.70
2023-02-16T02:15:32.285Z,54.57
2023-02-16T02:16:06.161Z,56.13
2023-02-16T02:16:38.197Z,54.23
2023-02-16T02:17:16.287Z,54.47
2023-02-16T02:17:48.081Z,52.77
2023-02-16T02:18:19.895Z,53.80
2023-02-16T02:18:51.856Z,56.93
2023-02-16T02:19:24.203Z,55.20
2023-02-16T02:21:00.543Z,52.23
2023-02-16T02:22:23.220Z,50.13
2023-02-16T02:23:33.203Z,52.87
2023-02-16T02:24:07.665Z,54.07
2023-02-16T02:25:00.897Z,53.47
2023-02-16T02:25:43.047Z,54.50
2023-02-16T02:26:49.033Z,51.90
2023-02-16T02:28:01.258Z,53.30
2023-02-16T02:29:00.242Z,52.13
2023-02-16T02:30:11.722Z,52.17
2023-02-16T02:30:55.275Z,53.43
2023-02-16T02:31:30.046Z,54.33
2023-02-16T02:32:30.760Z,53.90
2023-02-16T02:33:20.812Z,52.63
2023-02-16T02:34:23.147Z,51.60
2023-02-16T02:35:01.182Z,54.63
2023-02-16T02:35:51.980Z,56.60
2023-02-16T02:36:26.627Z,54.63
2023-02-16T02:37:19.629Z,53.63
2023-02-16T02:38:21.947Z,55.33
2023-02-16T02:39:00.615Z,55.60
2023-02-16T02:40:13.775Z,57.90
2023-02-16T02:40:55.687Z,54.50
2023-02-16T02:42:04.075Z,56.20
2023-02-16T02:43:05.247Z,57.07
2023-02-16T02:43:50.740Z,56.27
2023-02-16T02:44:27.025Z,57.20
2023-02-16T02:45:10.116Z,55.50
2023-02-16T02:45:49.822Z,58.30
2023-02-16T02:46:31.741Z,56.40
2023-02-16T02:47:03.656Z,56.67
2023-02-16T02:47:44.355Z,58.03
2023-02-16T02:48:16.167Z,54.50
2023-02-16T02:48:47.901Z,55.57
2023-02-16T02:49:19.727Z,54.63
2023-02-16T02:49:54.031Z,52.53
2023-02-16T02:51:05.191Z,55.07
2023-02-16T02:51:40.386Z,54.10
2023-02-16T02:52:12.363Z,53.27
2023-02-16T02:52:44.562Z,52.53
2023-02-16T02:53:16.787Z,53.30
2023-02-16T02:54:15.015Z,52.10
2023-02-16T02:55:07.871Z,54.40
2023-02-16T02:56:04.462Z,53.93
2023-02-16T02:56:55.154Z,54.57
2023-02-16T02:57:59.652Z,53.23
2023-02-16T02:59:12.054Z,54.33
2023-02-16T03:00:07.808Z,55.77
2023-02-16T03:00:47.498Z,55.87
2023-02-16T03:01:22.017Z,55.57
2023-02-16T03:01:58.799Z,54.67
2023-02-16T03:02:34.024Z,54.93
2023-02-16T03:03:14.890Z,55.47
2023-02-16T03:03:52.473Z,53.70
2023-02-16T03:04:30.674Z,53.00
2023-02-16T03:05:05.676Z,54.63
2023-02-16T03:05:42.262Z,55.60
2023-02-16T03:06:30.087Z,56.27
2023-02-16T03:07:04.884Z,60.20
2023-02-16T03:07:48.068Z,60.10
2023-02-16T03:08:25.870Z,57.80
2023-02-16T03:09:24.545Z,61.00
2023-02-16T03:10:16.500Z,60.67
2023-02-16T03:11:33.191Z,63.17
2023-02-16T03:12:27.233Z,61.50
2023-02-16T03:13:01.890Z,60.63
2023-02-16T03:13:44.888Z,62.67
2023-02-16T03:14:22.529Z,61.03
2023-02-16T03:14:59.256Z,61.57
2023-02-16T03:15:33.643Z,61.00
2023-02-16T03:16:12.457Z,62.37
2023-02-16T03:16:44.495Z,62.73
2023-02-16T03:17:38.721Z,63.83
2023-02-16T03:18:33.444Z,61.90
2023-02-16T03:19:28.095Z,64.47
2023-02-16T03:20:22.791Z,62.30
2023-02-16T03:21:15.060Z,62.07
2023-02-16T03:22:05.168Z,62.17
2023-02-16T03:22:57.755Z,60.87
2023-02-16T03:23:48.629Z,61.47
2023-02-16T03:24:57.256Z,63.27
2023-02-16T03:25:52.344Z,59.37
2023-02-16T03:26:45.196Z,59.30
2023-02-16T03:27:43.075Z,60.00
2023-02-16T03:28:36.732Z,60.30
2023-02-16T03:29:19.101Z,58.33
2023-02-16T03:29:53.244Z,57.53
2023-02-16T03:30:27.669Z,57.30
2023-02-16T03:31:02.504Z,58.93
2023-02-16T03:31:41.005Z,58.60
2023-02-16T03:32:12.921Z,58.93
2023-02-16T03:32:45.310Z,58.40
2023-02-16T03:33:17.940Z,58.40
2023-02-16T03:33:54.735Z,58.17
2023-02-16T03:34:28.120Z,58.67
2023-02-16T03:35:00.027Z,58.07
2023-02-16T03:35:32.137Z,59.17
2023-02-16T03:36:05.388Z,60.03
2023-02-16T03:36:41.290Z,61.27
2023-02-16T03:37:14.169Z,59.30
2023-02-16T03:37:47.339Z,58.30
2023-02-16T03:38:20.483Z,59.53
2023-02-16T03:38:54.221Z,59.00
2023-02-16T03:39:28.763Z,61.83
2023-02-16T03:40:18.885Z,59.70
2023-02-16T03:40:52.362Z,59.77
2023-02-16T03:41:26.425Z,61.70
2023-02-16T03:41:58.754Z,58.93
2023-02-16T03:42:30.517Z,61.10
2023-02-16T03:43:05.396Z,62.57
2023-02-16T03:43:37.512Z,60.03
2023-02-16T03:44:09.549Z,60.50
2023-02-16T03:44:41.293Z,61.50
2023-02-16T03:45:13.122Z,62.30
2023-02-16T03:45:45.851Z,63.53
2023-02-16T03:46:17.977Z,62.13
2023-02-16T03:46:49.773Z,61.50
2023-02-16T03:47:21.647Z,61.10
2023-02-16T03:47:54.271Z,62.20
2023-02-16T03:48:26.176Z,62.60
2023-02-16T03:48:57.953Z,64.10
2023-02-16T03:49:29.982Z,64.47
2023-02-16T03:50:01.754Z,69.77
2023-02-16T03:50:34.053Z,68.33
2023-02-16T03:51:06.151Z,68.40
2023-02-16T03:51:38.130Z,70.63
2023-02-16T03:52:10.295Z,70.87
2023-02-16T03:52:42.084Z,69.20
2023-02-16T03:53:15.970Z,69.77
2023-02-16T03:53:50.267Z,80.63
2023-02-16T03:54:21.989Z,86.03
2023-02-16T03:54:53.772Z,88.70
2023-02-16T03:55:25.476Z,77.77
2023-02-16T03:55:57.202Z,77.53
2023-02-16T03:56:28.960Z,79.13
2023-02-16T03:57:00.767Z,82.77
2023-02-16T03:57:32.562Z,71.87
2023-02-16T03:58:06.414Z,71.13
2023-02-16T03:58:38.240Z,80.37
2023-02-16T03:59:10.048Z,91.07
2023-02-16T03:59:41.743Z,92.37
2023-02-16T04:00:13.856Z,93.60
2023-02-16T04:00:45.988Z,130.77
2023-02-16T04:01:17.844Z,112.90
2023-02-16T04:01:49.616Z,99.83
2023-02-16T04:02:22.248Z,108.17
2023-02-16T04:02:54.048Z,103.60
2023-02-16T04:03:27.222Z,121.03
2023-02-16T04:03:59.078Z,192.60
2023-02-16T04:04:30.961Z,190.73
2023-02-16T04:05:03.165Z,192.80
2023-02-16T04:05:35.311Z,227.47
2023-02-16T04:06:07.434Z,208.40
2023-02-16T04:06:39.186Z,219.43
2023-02-16T04:07:10.898Z,218.10
2023-02-16T04:07:42.660Z,202.03
2023-02-16T04:08:14.402Z,188.67
2023-02-16T04:08:46.160Z,162.93
2023-02-16T04:09:17.980Z,162.77
2023-02-16T04:09:49.744Z,146.93
2023-02-16T04:10:22.660Z,131.90
2023-02-16T04:10:56.867Z,100.60
2023-02-16T04:11:47.017Z,97.53
2023-02-16T04:12:36.825Z,96.80
2023-02-16T04:13:09.097Z,90.47
2023-02-16T04:13:40.862Z,85.67
2023-02-16T04:14:13.209Z,85.17
2023-02-16T04:14:44.950Z,83.03
2023-02-16T04:15:22.395Z,75.23
2023-02-16T04:15:54.176Z,73.63
2023-02-16T04:16:25.980Z,75.63
2023-02-16T04:16:57.697Z,71.10
2023-02-16T04:17:29.574Z,70.23
2023-02-16T04:18:01.962Z,69.77
2023-02-16T04:18:33.751Z,71.53
2023-02-16T04:19:06.509Z,73.77
2023-02-16T04:19:38.306Z,77.17
2023-02-16T04:20:14.007Z,73.67
2023-02-16T04:20:45.726Z,66.17
2023-02-16T04:21:20.060Z,68.30
2023-02-16T04:21:53.156Z,68.20
2023-02-16T04:22:24.929Z,76.20
2023-02-16T04:22:57.530Z,84.80
2023-02-16T04:23:29.612Z,95.83
2023-02-16T04:24:01.343Z,93.00
2023-02-16T04:24:33.116Z,82.07
2023-02-16T04:25:06.086Z,81.20
2023-02-16T04:25:37.836Z,82.17
2023-02-16T04:26:09.836Z,82.57
2023-02-16T04:26:41.645Z,72.27
2023-02-16T04:27:13.459Z,68.97
2023-02-16T04:27:46.630Z,69.23
2023-02-16T04:28:18.405Z,67.87
2023-02-16T04:28:50.199Z,70.27
2023-02-16T04:29:21.997Z,70.27
2023-02-16T04:29:53.901Z,68.40
2023-02-16T04:30:31.039Z,65.63
2023-02-16T04:31:03.234Z,64.63
2023-02-16T04:31:35.353Z,67.17
2023-02-16T04:32:07.332Z,67.60
2023-02-16T04:32:39.904Z,68.27
2023-02-16T04:33:11.744Z,66.67
2023-02-16T04:33:43.583Z,66.50
2023-02-16T04:34:15.757Z,67.27
2023-02-16T04:34:47.548Z,66.37
2023-02-16T04:35:20.285Z,65.20
2023-02-16T04:35:52.119Z,66.67
2023-02-16T04:36:23.904Z,66.43
2023-02-16T04:36:55.731Z,65.70
2023-02-16T04:37:27.815Z,68.73
2023-02-16T04:37:59.637Z,69.27
2023-02-16T04:38:31.396Z,69.67
2023-02-16T04:39:03.749Z,70.57
2023-02-16T04:39:35.537Z,67.63
2023-02-16T04:40:09.441Z,67.10
2023-02-16T04:40:41.465Z,67.03
2023-02-16T04:41:13.237Z,67.37
2023-02-16T04:41:45.037Z,66.87
2023-02-16T04:42:16.884Z,70.10
2023-02-16T04:42:48.751Z,71.50
2023-02-16T04:43:20.541Z,69.70
2023-02-16T04:43:52.731Z,68.00
2023-02-16T04:44:24.576Z,67.67
2023-02-16T04:44:56.569Z,67.13
2023-02-16T04:45:31.109Z,67.77
2023-02-16T04:46:02.969Z,67.13
2023-02-16T04:46:34.817Z,67.50
2023-02-16T04:47:06.575Z,65.93
2023-02-16T04:47:38.433Z,66.70
2023-02-16T04:48:10.351Z,65.10
2023-02-16T04:48:42.221Z,66.97
2023-02-16T04:49:13.999Z,68.17
2023-02-16T04:49:45.756Z,66.47
2023-02-16T04:50:17.809Z,66.43
2023-02-16T04:50:50.938Z,66.63
2023-02-16T04:51:22.706Z,67.53
2023-02-16T04:51:54.898Z,69.57
2023-02-16T04:52:26.840Z,84.47
2023-02-16T04:52:59.349Z,121.80
2023-02-16T04:53:31.084Z,149.70
2023-02-16T04:54:02.934Z,197.30
2023-02-16T04:54:35.003Z,163.57
2023-02-16T04:55:09.383Z,133.77
2023-02-16T04:55:48.843Z,118.57
2023-02-16T04:56:20.863Z,73.90
2023-02-16T04:56:52.599Z,73.20
2023-02-16T04:57:25.653Z,77.40
2023-02-16T04:57:57.407Z,76.73
2023-02-16T04:58:29.561Z,74.87
2023-02-16T04:59:01.440Z,74.60
2023-02-16T04:59:33.273Z,74.60
2023-02-16T05:00:07.340Z,72.90
2023-02-16T05:00:39.514Z,69.80
2023-02-16T05:01:21.734Z,67.93
2023-02-16T05:01:53.867Z,67.70
2023-02-16T05:02:25.987Z,66.20
2023-02-16T05:02:57.872Z,73.67
2023-02-16T05:03:29.993Z,188.37
2023-02-16T05:04:01.799Z,245.80
2023-02-16T05:04:33.751Z,116.77
2023-02-16T05:05:05.787Z,239.83
2023-02-16T05:05:38.006Z,261.53
2023-02-16T05:06:10.152Z,208.13
2023-02-16T05:06:42.814Z,165.40
2023-02-16T05:07:14.613Z,167.73
2023-02-16T05:07:46.566Z,149.53
2023-02-16T05:08:21.533Z,127.43
2023-02-16T05:08:53.402Z,110.03
2023-02-16T05:09:25.715Z,95.43
2023-02-16T05:09:57.576Z,94.20
2023-02-16T05:10:29.561Z,93.77
2023-02-16T05:11:19.830Z,90.93
2023-02-16T05:12:10.391Z,91.33
2023-02-16T05:13:00.908Z,84.03
2023-02-16T05:13:51.422Z,83.43
2023-02-16T05:14:45.033Z,87.47
2023-02-16T05:15:17.043Z,115.57
2023-02-16T05:15:49.572Z,115.10
2023-02-16T05:16:23.397Z,130.47
2023-02-16T05:16:55.198Z,152.07
2023-02-16T05:17:28.180Z,146.77
2023-02-16T05:18:00.191Z,135.60
2023-02-16T05:18:31.939Z,137.93
2023-02-16T05:19:04.101Z,138.67
2023-02-16T05:19:36.389Z,126.83
2023-02-16T05:20:10.892Z,113.33
2023-02-16T05:21:01.429Z,109.87
2023-02-16T05:21:33.540Z,113.40
2023-02-16T05:22:05.725Z,119.60
2023-02-16T05:22:39.382Z,106.57
2023-02-16T05:23:11.353Z,104.53
2023-02-16T05:23:43.112Z,99.17
2023-02-16T05:24:14.827Z,101.50
2023-02-16T05:24:47.218Z,101.50
2023-02-16T05:25:19.446Z,94.27
2023-02-16T05:25:51.259Z,91.10
2023-02-16T05:26:22.997Z,98.93
2023-02-16T05:26:54.924Z,97.53
2023-02-16T05:27:29.876Z,94.80
2023-02-16T05:28:01.762Z,89.43
2023-02-16T05:28:33.562Z,85.87
2023-02-16T05:29:06.427Z,83.97
2023-02-16T05:29:38.283Z,88.37
2023-02-16T05:30:10.877Z,96.20
2023-02-16T05:30:42.731Z,92.07
2023-02-16T05:31:14.655Z,92.03
2023-02-16T05:31:46.693Z,92.73
2023-02-16T05:32:19.281Z,94.53
2023-02-16T05:32:51.091Z,103.90
2023-02-16T05:33:23.147Z,105.63
2023-02-16T05:33:55.371Z,98.87
2023-02-16T05:34:27.445Z,99.43
2023-02-16T05:34:59.618Z,99.20
2023-02-16T05:35:33.181Z,94.67
2023-02-16T05:36:05.191Z,99.53
2023-02-16T05:36:36.923Z,99.37
2023-02-16T05:37:08.760Z,98.83
2023-02-16T05:37:42.725Z,102.67
2023-02-16T05:38:14.561Z,102.27
2023-02-16T05:38:46.408Z,103.37
2023-02-16T05:39:18.236Z,103.73
2023-02-16T05:39:49.994Z,105.07
2023-02-16T05:40:21.805Z,94.97
2023-02-16T05:40:53.612Z,96.23
2023-02-16T05:41:25.459Z,89.77
2023-02-16T05:41:58.736Z,91.50
2023-02-16T05:42:30.793Z,93.40
2023-02-16T05:43:02.537Z,97.40
2023-02-16T05:43:34.701Z,94.27
2023-02-16T05:44:08.450Z,90.10
2023-02-16T05:44:40.371Z,89.40
2023-02-16T05:45:12.296Z,91.17
2023-02-16T05:45:44.094Z,90.73
2023-02-16T05:46:15.901Z,86.87
2023-02-16T05:46:47.977Z,90.47
2023-02-16T05:47:19.862Z,87.07
2023-02-16T05:47:53.214Z,83.13
2023-02-16T05:48:25.115Z,88.83
2023-02-16T05:48:56.981Z,92.07
2023-02-16T05:49:28.748Z,89.87
2023-02-16T05:50:00.533Z,87.43
2023-02-16T05:50:32.279Z,89.13
2023-02-16T05:51:04.696Z,87.63
2023-02-16T05:51:40.667Z,85.13
2023-02-16T05:52:12.406Z,82.80
2023-02-16T05:52:44.272Z,82.03
2023-02-16T05:53:16.050Z,79.33
2023-02-16T05:53:48.484Z,80.00
2023-02-16T05:54:20.366Z,77.90
2023-02-16T05:54:52.138Z,76.73
2023-02-16T05:55:23.900Z,77.77
2023-02-16T05:55:55.667Z,76.50
2023-02-16T05:56:27.509Z,75.17
2023-02-16T05:56:59.244Z,74.63
2023-02-16T05:57:33.827Z,73.13
2023-02-16T05:58:05.623Z,75.37
2023-02-16T05:58:39.733Z,76.70
2023-02-16T05:59:12.240Z,73.63
2023-02-16T05:59:44.094Z,75.73
2023-02-16T06:00:16.923Z,75.93
2023-02-16T06:00:48.776Z,74.83
2023-02-16T06:01:21.383Z,77.40
2023-02-16T06:01:53.188Z,76.53
2023-02-16T06:02:24.992Z,76.20
2023-02-16T06:02:56.928Z,76.70
2023-02-16T06:03:28.990Z,76.90
2023-02-16T06:04:00.817Z,78.17
2023-02-16T06:04:32.804Z,77.03
2023-02-16T06:05:04.700Z,75.47
2023-02-16T06:05:36.710Z,76.13
2023-02-16T06:06:09.899Z,77.07
2023-02-16T06:06:41.815Z,75.97
2023-02-16T06:07:14.933Z,75.70
2023-02-16T06:07:46.817Z,77.30
2023-02-16T06:08:18.592Z,77.90
2023-02-16T06:08:50.507Z,78.03
2023-02-16T06:09:22.984Z,78.73
2023-02-16T06:09:54.828Z,77.97
2023-02-16T06:10:27.155Z,77.93
2023-02-16T06:10:59.758Z,80.67
2023-02-16T06:11:37.759Z,83.80
2023-02-16T06:12:09.653Z,84.40
2023-02-16T06:12:43.229Z,85.10
2023-02-16T06:13:16.673Z,89.00
2023-02-16T06:13:50.900Z,90.63
2023-02-16T06:14:22.788Z,89.63
2023-02-16T06:14:56.062Z,89.17
2023-02-16T06:15:27.936Z,91.70
2023-02-16T06:16:00.194Z,88.63
2023-02-16T06:16:33.754Z,82.17
2023-02-16T06:17:05.678Z,85.00
2023-02-16T06:17:37.492Z,84.67
2023-02-16T06:18:11.551Z,81.77
2023-02-16T06:18:44.998Z,81.30
2023-02-16T06:19:18.345Z,82.00
2023-02-16T06:19:50.272Z,79.33
2023-02-16T06:20:22.059Z,77.63
2023-02-16T06:20:57.050Z,78.40
2023-02-16T06:21:29.959Z,79.10
2023-02-16T06:22:01.854Z,81.30
2023-02-16T06:22:33.631Z,78.07
2023-02-16T06:23:07.550Z,76.97
2023-02-16T06:23:39.267Z,78.37
2023-02-16T06:24:13.098Z,81.10
2023-02-16T06:24:45.188Z,80.80
2023-02-16T06:25:19.141Z,80.03
2023-02-16T06:25:54.149Z,77.80
2023-02-16T06:26:26.561Z,77.27
2023-02-16T06:26:58.312Z,78.73
2023-02-16T06:27:30.104Z,79.20
2023-02-16T06:28:02.216Z,77.90
2023-02-16T06:28:33.983Z,80.53
2023-02-16T06:29:06.546Z,81.93
2023-02-16T06:29:38.319Z,82.77
2023-02-16T06:30:10.770Z,84.90
2023-02-16T06:30:52.056Z,85.87
2023-02-16T06:31:25.387Z,84.63
2023-02-16T06:31:57.478Z,84.60
2023-02-16T06:32:29.372Z,86.87
2023-02-16T06:33:04.365Z,87.90
2023-02-16T06:33:36.533Z,87.17
2023-02-16T06:34:08.485Z,88.17
2023-02-16T06:34:40.282Z,88.50
2023-02-16T06:35:12.095Z,89.40
2023-02-16T06:35:44.133Z,88.33
2023-02-16T06:36:16.043Z,87.37
2023-02-16T06:36:47.867Z,90.73
2023-02-16T06:37:19.652Z,94.27
2023-02-16T06:37:51.770Z,96.30
2023-02-16T06:38:23.720Z,101.83
2023-02-16T06:38:55.575Z,100.50
2023-02-16T06:39:27.310Z,105.83
2023-02-16T06:39:59.102Z,105.57
2023-02-16T06:40:30.958Z,103.87
2023-02-16T06:41:03.283Z,104.07
2023-02-16T06:41:38.049Z,104.27
2023-02-16T06:42:09.951Z,106.03
2023-02-16T06:42:42.711Z,107.37
2023-02-16T06:43:14.486Z,105.57
2023-02-16T06:43:46.230Z,103.17
2023-02-16T06:44:18.022Z,103.50
2023-02-16T06:44:49.779Z,104.50
2023-02-16T06:45:21.565Z,103.73
2023-02-16T06:45:53.487Z,104.23
2023-02-16T06:46:25.441Z,105.73
2023-02-16T06:46:57.538Z,110.93
2023-02-16T06:47:29.815Z,121.87
2023-02-16T06:48:01.557Z,138.97
2023-02-16T06:48:33.445Z,145.20
2023-02-16T06:49:05.442Z,133.10
2023-02-16T06:49:37.214Z,121.73
2023-02-16T06:50:14.659Z,115.97
2023-02-16T06:50:46.804Z,109.00
2023-02-16T06:51:19.493Z,105.37
2023-02-16T06:51:51.305Z,108.27
2023-02-16T06:52:23.064Z,111.17
2023-02-16T06:52:55.112Z,108.63
2023-02-16T06:53:27.167Z,103.63
2023-02-16T06:53:59.772Z,98.23
2023-02-16T06:54:35.155Z,101.40
2023-02-16T06:55:07.540Z,99.47
2023-02-16T06:55:39.585Z,96.23
2023-02-16T06:56:13.165Z,97.93
2023-02-16T06:56:44.939Z,97.63
2023-02-16T06:57:16.707Z,102.20
2023-02-16T06:57:48.470Z,101.53
2023-02-16T06:58:20.234Z,99.60
2023-02-16T06:58:52.272Z,99.50
2023-02-16T06:59:24.453Z,99.80
2023-02-16T06:59:56.594Z,98.27
2023-02-16T07:00:29.840Z,96.80
2023-02-16T07:01:01.889Z,100.13
2023-02-16T07:01:34.382Z,99.90
2023-02-16T07:02:06.842Z,98.90
2023-02-16T07:02:38.799Z,100.40
2023-02-16T07:03:10.646Z,100.17
2023-02-16T07:03:45.485Z,100.00
2023-02-16T07:04:17.344Z,102.07
2023-02-16T07:04:49.165Z,97.20
2023-02-16T07:05:21.256Z,96.17
2023-02-16T07:05:53.181Z,96.73
2023-02-16T07:06:27.197Z,94.50
2023-02-16T07:06:58.986Z,90.87
2023-02-16T07:07:31.461Z,90.33
2023-02-16T07:08:03.304Z,196.33
2023-02-16T07:08:35.842Z,129.90
2023-02-16T07:09:12.389Z,112.87
2023-02-16T07:09:44.632Z,96.00
2023-02-16T07:10:16.476Z,89.10
2023-02-16T07:10:50.182Z,90.07
2023-02-16T07:11:22.280Z,89.40
2023-02-16T07:11:54.543Z,97.53
2023-02-16T07:12:26.384Z,87.70
2023-02-16T07:12:58.139Z,89.93
2023-02-16T07:13:30.467Z,94.40
2023-02-16T07:14:02.321Z,86.23
2023-02-16T07:14:34.158Z,96.70
2023-02-16T07:15:06.559Z,87.20
2023-02-16T07:15:38.693Z,84.53
2023-02-16T07:16:10.897Z,82.17
2023-02-16T07:16:42.669Z,81.57
2023-02-16T07:17:14.541Z,82.43
2023-02-16T07:17:46.306Z,80.23
2023-02-16T07:18:18.196Z,81.40
2023-02-16T07:18:50.364Z,76.27
2023-02-16T07:19:22.154Z,76.30
2023-02-16T07:19:54.260Z,75.20
2023-02-16T07:20:27.139Z,68.77
2023-02-16T07:20:59.372Z,70.43
2023-02-16T07:21:31.341Z,72.53
2023-02-16T07:22:03.311Z,72.07
2023-02-16T07:22:35.376Z,71.50
2023-02-16T07:23:07.156Z,70.47
2023-02-16T07:23:38.984Z,69.47
2023-02-16T07:24:10.812Z,71.30
2023-02-16T07:24:42.531Z,72.97
2023-02-16T07:25:14.357Z,71.47
2023-02-16T07:25:46.109Z,69.17
2023-02-16T07:26:17.936Z,66.00
2023-02-16T07:26:49.722Z,67.73
2023-02-16T07:27:21.497Z,68.37
2023-02-16T07:27:54.720Z,67.37
2023-02-16T07:28:26.997Z,67.70
2023-02-16T07:28:59.046Z,68.70
2023-02-16T07:29:31.135Z,68.00
2023-02-16T07:30:03.989Z,80.33
2023-02-16T07:30:36.658Z,75.37
2023-02-16T07:31:15.831Z,74.57
2023-02-16T07:31:48.022Z,77.27
2023-02-16T07:32:20.271Z,72.60
2023-02-16T07:32:52.123Z,70.27
2023-02-16T07:33:24.876Z,70.00
2023-02-16T07:33:56.619Z,68.00
2023-02-16T07:34:28.501Z,73.20
2023-02-16T07:35:00.336Z,75.50
2023-02-16T07:35:38.761Z,70.90
2023-02-16T07:36:14.118Z,65.83
2023-02-16T07:36:45.993Z,64.67
2023-02-16T07:37:18.134Z,65.17
2023-02-16T07:37:50.673Z,62.23
2023-02-16T07:38:26.098Z,59.20
2023-02-16T07:38:57.820Z,59.60
2023-02-16T07:39:31.215Z,62.03
2023-02-16T07:40:03.730Z,62.30
2023-02-16T07:40:35.903Z,62.70
2023-02-16T07:41:09.881Z,63.63
2023-02-16T07:41:44.989Z,82.33
2023-02-16T07:42:16.899Z,75.57
2023-02-16T07:42:48.755Z,68.97